Mount Plymouth, Florida
Current Conditions -  °F | °C
As of 7:53 PM on Sunday 21 Dec 2014 (Local Time) from KSFB Reporting Station
Light Rain Light Rain  
Wind Chill: 68°   Ceiling: 12000
Heat Index: 68°   Visibility: 6mi
Dew Point: 66°   Wind: 5mph
Humidity: 93%   Direction: 250°WSW
Pressure: 30.06"   Gusts: NA
Location:  28.8172°N, 81.4964°W
Report Text: KSFB 220053Z 25004KT 6SM -RA BR FEW050 SCT075 BKN120 20/19 A3006 RMK AO2 SLP178 P0005 T02000189
Loading
Personal Weather Stations






























Interactive Weather Map New forecast layout! Learn more

10-Day Weather Forecast

Advertisements
Track Severe Weather on mobile